Time;durP1;ratioP1;P1;durP2;ratioP2;P2;SDS_P1;SDS_P2;PMS_P1;PMS_P2;Temp;Humidity;BMP_temperature;BMP_pressure;BME280_temperature;BME280_humidity;BME280_pressure;Samples;Min_cycle;Max_cycle;Signal;HPM_P1;HPM_P2
2024/01/20 00:01:02;;;;;;;20.30;7.97;;;;;;;;;;5072547;28;20028;-67
2024/01/20 00:03:28;;;;;;;19.30;9.05;;;;;;;;;;5072756;28;20074;-67
2024/01/20 00:05:53;;;;;;;21.10;9.98;;;;;;;;;;5072750;28;20426;-67
2024/01/20 00:08:19;;;;;;;17.00;8.20;;;;;;;;;;5054834;28;20395;-67
2024/01/20 00:10:44;;;;;;;20.15;9.20;;;;;;;;;;5054841;28;20051;-67
2024/01/20 00:13:10;;;;;;;19.40;8.68;;;;;;;;;;5072721;28;20032;-67
2024/01/20 00:15:36;;;;;;;20.52;10.05;;;;;;;;;;5072707;28;20024;-67
2024/01/20 00:18:02;;;;;;;13.90;7.30;;;;;;;;;;5072674;28;20077;-67
2024/01/20 00:20:28;;;;;;;15.45;9.07;;;;;;;;;;5071638;28;20142;-67
2024/01/20 00:22:54;;;;;;;18.58;9.52;;;;;;;;;;5052027;28;20021;-67
2024/01/20 00:25:19;;;;;;;19.02;9.23;;;;;;;;;;5036660;28;20045;-67
2024/01/20 00:27:45;;;;;;;22.20;10.23;;;;;;;;;;5052672;28;20028;-67
2024/01/20 00:30:11;;;;;;;15.63;7.45;;;;;;;;;;5052261;28;20033;-67
2024/01/20 00:32:37;;;;;;;23.02;8.93;;;;;;;;;;5052483;28;20033;-67
2024/01/20 00:35:03;;;;;;;23.60;9.80;;;;;;;;;;5052373;28;20029;-67
2024/01/20 00:37:29;;;;;;;18.08;8.35;;;;;;;;;;5052037;28;20035;-67
2024/01/20 00:39:54;;;;;;;21.98;9.32;;;;;;;;;;5071233;28;20016;-67
2024/01/20 00:42:20;;;;;;;13.10;7.10;;;;;;;;;;5072095;28;20028;-67
2024/01/20 00:44:45;;;;;;;22.50;9.90;;;;;;;;;;5071853;28;20032;-66
2024/01/20 00:47:11;;;;;;;23.45;11.25;;;;;;;;;;5072576;28;20035;-67
2024/01/20 00:49:36;;;;;;;19.63;10.15;;;;;;;;;;5072505;28;20464;-67
2024/01/20 00:52:02;;;;;;;17.02;9.25;;;;;;;;;;5072277;28;20098;-67
2024/01/20 00:54:29;;;;;;;19.90;8.98;;;;;;;;;;5072037;28;20052;-67
2024/01/20 00:56:54;;;;;;;23.95;9.73;;;;;;;;;;5072112;28;20024;-67
2024/01/20 00:59:20;;;;;;;15.68;8.60;;;;;;;;;;5071881;28;20494;-67
2024/01/20 01:01:46;;;;;;;25.13;10.63;;;;;;;;;;5072275;28;20063;-67
2024/01/20 01:04:11;;;;;;;18.23;8.45;;;;;;;;;;5072014;28;20032;-67
2024/01/20 01:06:37;;;;;;;16.10;8.80;;;;;;;;;;5072112;28;20567;-66
2024/01/20 01:09:02;;;;;;;14.20;7.97;;;;;;;;;;5070666;28;20032;-67
2024/01/20 01:11:28;;;;;;;18.80;9.32;;;;;;;;;;5071984;28;20040;-67
2024/01/20 01:13:53;;;;;;;15.65;7.95;;;;;;;;;;5071866;28;20025;-67
2024/01/20 01:16:19;;;;;;;20.30;8.88;;;;;;;;;;5071911;28;20017;-67
2024/01/20 01:18:44;;;;;;;15.75;8.20;;;;;;;;;;5071973;28;20028;-67
2024/01/20 01:21:10;;;;;;;12.77;7.35;;;;;;;;;;5071856;28;20028;-67
2024/01/20 01:23:35;;;;;;;17.50;9.82;;;;;;;;;;5072100;28;20032;-67
2024/01/20 01:26:01;;;;;;;14.15;7.25;;;;;;;;;;5072129;28;20033;-66
2024/01/20 01:28:26;;;;;;;19.15;9.05;;;;;;;;;;5071871;28;20062;-66
2024/01/20 01:30:52;;;;;;;22.02;10.93;;;;;;;;;;5072215;28;20021;-67
2024/01/20 01:33:17;;;;;;;22.73;10.70;;;;;;;;;;5072175;28;20028;-67
2024/01/20 01:35:42;;;;;;;21.83;10.23;;;;;;;;;;5071967;28;20047;-66
2024/01/20 01:38:09;;;;;;;19.65;8.68;;;;;;;;;;5071924;28;20052;-67
2024/01/20 01:40:34;;;;;;;21.17;9.50;;;;;;;;;;5071926;28;20059;-67
2024/01/20 01:42:59;;;;;;;20.63;10.20;;;;;;;;;;5071578;28;20052;-67
2024/01/20 01:45:25;;;;;;;22.48;10.77;;;;;;;;;;5071686;28;20051;-67
2024/01/20 01:47:52;;;;;;;16.73;8.05;;;;;;;;;;5071732;28;20031;-67
2024/01/20 01:50:18;;;;;;;12.57;7.20;;;;;;;;;;5075199;28;20040;-66
2024/01/20 01:52:47;;;;;;;19.38;11.13;;;;;;;;;;5075253;28;20024;-67
2024/01/20 01:55:13;;;;;;;18.98;10.20;;;;;;;;;;5075391;28;20474;-67
2024/01/20 01:57:41;;;;;;;14.45;7.15;;;;;;;;;;5075208;28;20035;-66
2024/01/20 02:00:06;;;;;;;22.08;9.48;;;;;;;;;;5068967;28;20472;-66
2024/01/20 02:02:32;;;;;;;17.85;9.55;;;;;;;;;;5055330;28;20021;-67
2024/01/20 02:04:57;;;;;;;19.80;9.48;;;;;;;;;;5055062;28;20061;-67
2024/01/20 02:07:23;;;;;;;18.33;10.88;;;;;;;;;;5055259;28;20047;-67
2024/01/20 02:09:48;;;;;;;16.10;7.68;;;;;;;;;;5055476;28;20025;-66
2024/01/20 02:12:15;;;;;;;22.27;10.95;;;;;;;;;;5054913;28;20420;-67
2024/01/20 02:14:44;;;;;;;25.73;10.90;;;;;;;;;;5054984;28;20052;-66
2024/01/20 02:17:10;;;;;;;19.23;9.80;;;;;;;;;;5055080;28;20029;-67
2024/01/20 02:19:40;;;;;;;18.52;9.50;;;;;;;;;;5059730;28;20033;-67
2024/01/20 02:22:13;;;;;;;23.27;11.40;;;;;;;;;;5074943;28;20029;-67
2024/01/20 02:24:39;;;;;;;22.05;8.60;;;;;;;;;;5074229;28;20037;-67
2024/01/20 02:27:06;;;;;;;18.52;9.10;;;;;;;;;;5074093;28;20025;-67
2024/01/20 02:29:31;;;;;;;16.05;8.80;;;;;;;;;;5074408;28;20120;-67
2024/01/20 02:31:57;;;;;;;23.98;10.05;;;;;;;;;;5074253;28;20099;-67
2024/01/20 02:34:22;;;;;;;18.55;9.07;;;;;;;;;;5074311;28;20032;-67
2024/01/20 02:36:48;;;;;;;20.58;11.20;;;;;;;;;;5074250;28;20021;-67
2024/01/20 02:39:13;;;;;;;17.55;7.97;;;;;;;;;;5074129;28;20074;-66
2024/01/20 02:41:39;;;;;;;24.50;9.98;;;;;;;;;;5073915;28;20101;-67
2024/01/20 02:44:09;;;;;;;23.25;9.98;;;;;;;;;;5073956;28;20025;-67
2024/01/20 02:46:35;;;;;;;14.05;7.80;;;;;;;;;;5073871;28;20036;-67
2024/01/20 02:49:00;;;;;;;17.08;8.27;;;;;;;;;;5074211;28;20035;-67
2024/01/20 02:51:25;;;;;;;23.38;11.05;;;;;;;;;;5074194;28;20060;-66
2024/01/20 02:53:51;;;;;;;21.60;11.05;;;;;;;;;;5085499;28;20575;-67
2024/01/20 02:56:16;;;;;;;19.30;9.77;;;;;;;;;;5091290;28;20028;-67
2024/01/20 02:58:42;;;;;;;23.00;9.90;;;;;;;;;;5074326;28;20055;-67
2024/01/20 03:01:07;;;;;;;11.27;5.85;;;;;;;;;;5073897;28;20107;-67
2024/01/20 03:03:32;;;;;;;23.20;9.73;;;;;;;;;;5074010;28;20482;-67
2024/01/20 03:05:58;;;;;;;16.38;8.43;;;;;;;;;;5074101;28;20024;-67
2024/01/20 03:08:23;;;;;;;17.33;9.00;;;;;;;;;;5073869;28;20066;-67
2024/01/20 03:10:49;;;;;;;36.70;11.23;;;;;;;;;;5074102;28;20375;-67
2024/01/20 03:13:14;;;;;;;13.60;6.95;;;;;;;;;;5074026;28;20028;-67
2024/01/20 03:15:39;;;;;;;10.40;6.82;;;;;;;;;;5073954;28;20055;-67
2024/01/20 03:18:05;;;;;;;23.90;10.45;;;;;;;;;;5073938;28;20027;-67
2024/01/20 03:20:30;;;;;;;15.68;8.57;;;;;;;;;;5073687;28;20032;-67
2024/01/20 03:22:56;;;;;;;23.23;9.88;;;;;;;;;;5073627;28;20021;-67
2024/01/20 03:25:21;;;;;;;18.60;9.07;;;;;;;;;;5073619;28;20029;-66
2024/01/20 03:27:46;;;;;;;22.50;9.25;;;;;;;;;;5073651;28;20024;-66
2024/01/20 03:30:12;;;;;;;18.63;10.13;;;;;;;;;;5073698;28;20372;-66
2024/01/20 03:32:38;;;;;;;17.05;9.38;;;;;;;;;;5073776;28;20039;-66
2024/01/20 03:35:04;;;;;;;23.15;10.48;;;;;;;;;;5073610;28;20395;-66
2024/01/20 03:37:29;;;;;;;23.55;11.13;;;;;;;;;;5073371;28;20029;-67
2024/01/20 03:39:55;;;;;;;14.63;7.82;;;;;;;;;;5073386;28;20068;-66
2024/01/20 03:42:21;;;;;;;25.20;10.93;;;;;;;;;;5073535;28;20086;-66
2024/01/20 03:44:46;;;;;;;15.85;8.35;;;;;;;;;;5073163;28;20111;-67
2024/01/20 03:47:12;;;;;;;18.30;8.98;;;;;;;;;;5073419;28;20059;-67
2024/01/20 03:49:37;;;;;;;21.80;10.02;;;;;;;;;;5073165;28;20096;-67
2024/01/20 03:52:03;;;;;;;21.30;10.90;;;;;;;;;;5072995;28;20021;-67
2024/01/20 03:54:28;;;;;;;16.00;9.27;;;;;;;;;;5072880;28;20050;-67
2024/01/20 03:56:54;;;;;;;16.45;8.93;;;;;;;;;;5072934;28;20028;-67
2024/01/20 03:59:19;;;;;;;16.15;9.90;;;;;;;;;;5073111;28;20406;-67
2024/01/20 04:01:44;;;;;;;26.17;11.30;;;;;;;;;;5053063;28;20102;-66
2024/01/20 04:04:10;;;;;;;21.42;10.65;;;;;;;;;;5052852;28;20025;-66
2024/01/20 04:06:35;;;;;;;19.85;10.18;;;;;;;;;;5052541;28;20361;-67
2024/01/20 04:09:01;;;;;;;16.83;10.23;;;;;;;;;;5053088;28;20028;-66
2024/01/20 04:11:26;;;;;;;21.67;9.98;;;;;;;;;;5052404;28;20052;-66
2024/01/20 04:13:51;;;;;;;18.98;9.63;;;;;;;;;;5052788;28;20060;-67
2024/01/20 04:16:17;;;;;;;20.40;8.93;;;;;;;;;;5052905;28;20111;-66
2024/01/20 04:18:42;;;;;;;25.88;11.52;;;;;;;;;;5052758;28;20099;-66
2024/01/20 04:21:07;;;;;;;17.92;10.02;;;;;;;;;;5070002;28;20043;-67
2024/01/20 04:23:33;;;;;;;20.35;10.95;;;;;;;;;;5072667;28;20107;-67
2024/01/20 04:25:58;;;;;;;16.90;9.70;;;;;;;;;;5072627;28;20028;-67
2024/01/20 04:28:24;;;;;;;22.63;11.43;;;;;;;;;;5072768;28;20021;-66
2024/01/20 04:30:50;;;;;;;20.42;11.23;;;;;;;;;;5072402;28;20367;-67
2024/01/20 04:33:16;;;;;;;14.48;8.50;;;;;;;;;;5072515;28;20023;-67
2024/01/20 04:35:41;;;;;;;22.33;11.70;;;;;;;;;;5072358;28;20033;-67
2024/01/20 04:38:06;;;;;;;18.77;9.65;;;;;;;;;;5072558;28;20036;-66
2024/01/20 04:40:32;;;;;;;15.38;8.43;;;;;;;;;;5072618;28;20481;-66
2024/01/20 04:42:57;;;;;;;22.30;10.45;;;;;;;;;;5072488;28;20046;-68
2024/01/20 04:45:23;;;;;;;15.80;7.30;;;;;;;;;;5072327;28;20027;-67
2024/01/20 04:47:48;;;;;;;15.27;9.02;;;;;;;;;;5072517;28;20028;-67
2024/01/20 04:50:13;;;;;;;14.02;8.85;;;;;;;;;;5072183;28;20035;-67
2024/01/20 04:52:39;;;;;;;21.10;9.27;;;;;;;;;;5072174;28;20048;-67
2024/01/20 04:55:04;;;;;;;16.83;8.27;;;;;;;;;;5072483;28;20035;-67
2024/01/20 04:57:30;;;;;;;18.73;11.15;;;;;;;;;;5072265;28;20033;-67
2024/01/20 04:59:55;;;;;;;17.08;9.93;;;;;;;;;;5072267;28;20021;-67
2024/01/20 05:02:21;;;;;;;17.77;10.35;;;;;;;;;;5072472;28;20078;-67
2024/01/20 05:04:47;;;;;;;16.95;9.23;;;;;;;;;;5071648;28;20020;-67
2024/01/20 05:07:12;;;;;;;18.98;10.73;;;;;;;;;;5072239;28;20475;-67
2024/01/20 05:09:38;;;;;;;24.30;11.27;;;;;;;;;;5072312;28;20468;-67
2024/01/20 05:12:03;;;;;;;21.60;11.60;;;;;;;;;;5072236;28;20025;-67
2024/01/20 05:14:29;;;;;;;19.13;9.20;;;;;;;;;;5072092;28;20024;-67
2024/01/20 05:16:54;;;;;;;22.92;10.93;;;;;;;;;;5072279;28;20032;-68
2024/01/20 05:19:20;;;;;;;19.42;10.43;;;;;;;;;;5071890;28;20033;-67
2024/01/20 05:21:45;;;;;;;21.27;10.65;;;;;;;;;;5072092;28;20025;-67
2024/01/20 05:24:10;;;;;;;21.67;11.65;;;;;;;;;;5075018;28;20036;-66
2024/01/20 05:26:37;;;;;;;16.55;8.13;;;;;;;;;;5076140;28;20480;-66
2024/01/20 05:29:03;;;;;;;16.60;9.98;;;;;;;;;;5075780;28;20032;-67
2024/01/20 05:31:31;;;;;;;21.10;11.40;;;;;;;;;;5075815;28;20025;-67
2024/01/20 05:34:00;;;;;;;14.70;9.65;;;;;;;;;;5075711;28;20038;-66
2024/01/20 05:36:26;;;;;;;19.52;9.82;;;;;;;;;;5075847;28;20034;-67
2024/01/20 05:38:51;;;;;;;17.98;8.88;;;;;;;;;;5075936;28;20442;-66
2024/01/20 05:41:16;;;;;;;17.05;8.85;;;;;;;;;;5075734;28;20027;-67
2024/01/20 05:43:42;;;;;;;19.15;9.57;;;;;;;;;;5075581;28;20066;-67
2024/01/20 05:46:07;;;;;;;20.65;9.18;;;;;;;;;;5075382;28;20031;-66
2024/01/20 05:48:35;;;;;;;19.27;7.70;;;;;;;;;;5075014;28;20472;-66
2024/01/20 05:51:00;;;;;;;19.40;9.45;;;;;;;;;;5075578;28;20036;-66
2024/01/20 05:53:26;;;;;;;20.90;10.63;;;;;;;;;;5075281;28;20033;-66
2024/01/20 05:55:51;;;;;;;21.55;11.07;;;;;;;;;;5075406;28;20037;-67
2024/01/20 05:58:16;;;;;;;15.18;9.18;;;;;;;;;;5075319;28;20029;-67
2024/01/20 06:00:42;;;;;;;17.60;10.15;;;;;;;;;;5075316;28;20024;-67
2024/01/20 06:03:07;;;;;;;18.00;9.15;;;;;;;;;;5075072;28;20035;-67
2024/01/20 06:05:33;;;;;;;19.73;10.13;;;;;;;;;;5075187;28;20100;-66
2024/01/20 06:07:58;;;;;;;19.65;10.15;;;;;;;;;;5075188;28;20479;-66
2024/01/20 06:10:24;;;;;;;14.13;7.47;;;;;;;;;;5075198;28;20103;-66
2024/01/20 06:12:50;;;;;;;16.98;8.60;;;;;;;;;;5074700;28;20032;-67
2024/01/20 06:15:15;;;;;;;9.65;6.78;;;;;;;;;;5075148;28;20551;-66
2024/01/20 06:17:41;;;;;;;20.00;10.38;;;;;;;;;;5074835;28;20033;-67
2024/01/20 06:20:06;;;;;;;23.65;9.82;;;;;;;;;;5074898;28;20032;-67
2024/01/20 06:22:32;;;;;;;15.27;8.25;;;;;;;;;;5074974;28;20068;-67
2024/01/20 06:24:57;;;;;;;19.35;10.13;;;;;;;;;;5074932;28;20032;-67
2024/01/20 06:27:23;;;;;;;16.42;8.95;;;;;;;;;;5074872;28;20064;-66
2024/01/20 06:29:48;;;;;;;24.23;12.25;;;;;;;;;;5074958;28;20029;-66
2024/01/20 06:32:14;;;;;;;20.55;10.93;;;;;;;;;;5056558;28;20051;-66
2024/01/20 06:34:39;;;;;;;16.92;10.00;;;;;;;;;;5074184;28;20471;-67
2024/01/20 06:37:05;;;;;;;21.35;10.63;;;;;;;;;;5074829;28;20035;-66
2024/01/20 06:39:30;;;;;;;18.92;9.30;;;;;;;;;;5074603;28;20024;-66
2024/01/20 06:41:56;;;;;;;18.63;9.63;;;;;;;;;;5074401;28;20590;-67
2024/01/20 06:44:22;;;;;;;18.52;9.40;;;;;;;;;;5074585;28;20032;-66
2024/01/20 06:46:48;;;;;;;16.27;9.45;;;;;;;;;;5074107;28;20475;-67
2024/01/20 06:49:14;;;;;;;27.55;8.90;;;;;;;;;;5074606;28;20052;-67
2024/01/20 06:51:42;;;;;;;15.07;7.72;;;;;;;;;;5074594;28;20035;-67
2024/01/20 06:54:08;;;;;;;16.45;8.38;;;;;;;;;;5074182;28;20053;-67
2024/01/20 06:56:34;;;;;;;17.35;8.55;;;;;;;;;;5074325;28;20021;-67
2024/01/20 06:58:59;;;;;;;17.10;9.93;;;;;;;;;;5074403;28;20027;-67
2024/01/20 07:01:25;;;;;;;10.93;6.45;;;;;;;;;;5073722;28;20028;-67
2024/01/20 07:03:51;;;;;;;13.82;7.93;;;;;;;;;;5073801;28;20029;-67
2024/01/20 07:06:17;;;;;;;24.42;9.32;;;;;;;;;;5074221;28;20028;-66
2024/01/20 07:08:43;;;;;;;18.23;8.60;;;;;;;;;;5074127;28;20075;-67
2024/01/20 07:11:09;;;;;;;14.73;7.15;;;;;;;;;;5074079;28;20437;-66
2024/01/20 07:13:36;;;;;;;18.73;8.75;;;;;;;;;;5073903;28;20043;-67
2024/01/20 07:16:08;;;;;;;15.75;8.75;;;;;;;;;;5073821;28;20081;-67
2024/01/20 07:18:33;;;;;;;17.63;8.65;;;;;;;;;;5073963;28;20033;-67
2024/01/20 07:20:58;;;;;;;21.15;8.70;;;;;;;;;;5073737;28;20035;-67
2024/01/20 07:23:24;;;;;;;27.90;9.70;;;;;;;;;;5073693;28;20372;-67
2024/01/20 07:25:49;;;;;;;15.90;8.77;;;;;;;;;;5073458;28;20029;-67
2024/01/20 07:28:15;;;;;;;14.27;7.43;;;;;;;;;;5073611;28;20074;-67
2024/01/20 07:30:40;;;;;;;14.95;8.88;;;;;;;;;;5073414;28;20463;-67
2024/01/20 07:33:05;;;;;;;22.77;7.68;;;;;;;;;;5073616;28;20020;-67
2024/01/20 07:35:31;;;;;;;14.63;6.53;;;;;;;;;;5073530;28;20027;-67
2024/01/20 07:37:56;;;;;;;16.52;8.07;;;;;;;;;;5073533;28;20078;-67
2024/01/20 07:40:22;;;;;;;14.27;6.55;;;;;;;;;;5073663;28;20027;-67
2024/01/20 07:42:47;;;;;;;12.55;7.55;;;;;;;;;;5073483;28;20107;-67
2024/01/20 07:45:12;;;;;;;18.00;9.95;;;;;;;;;;5072910;28;20028;-67
2024/01/20 07:47:38;;;;;;;13.35;7.68;;;;;;;;;;5072409;28;20021;-67
2024/01/20 07:50:03;;;;;;;16.90;7.22;;;;;;;;;;5073400;28;20398;-67
2024/01/20 07:52:29;;;;;;;12.93;6.45;;;;;;;;;;5073313;28;20073;-67
2024/01/20 07:54:54;;;;;;;15.02;7.38;;;;;;;;;;5073001;28;20491;-67
2024/01/20 07:57:19;;;;;;;12.35;6.60;;;;;;;;;;5072906;28;20036;-67
2024/01/20 07:59:45;;;;;;;18.17;7.70;;;;;;;;;;5072934;28;20122;-66
2024/01/20 08:02:10;;;;;;;18.17;9.00;;;;;;;;;;5073030;28;20035;-67
2024/01/20 08:04:36;;;;;;;10.07;6.72;;;;;;;;;;5072876;28;20036;-67
2024/01/20 08:07:01;;;;;;;9.43;4.65;;;;;;;;;;5073001;28;20103;-67
2024/01/20 08:09:26;;;;;;;14.10;8.20;;;;;;;;;;5054969;28;20033;-67
2024/01/20 08:11:52;;;;;;;13.35;7.25;;;;;;;;;;5073047;28;20028;-66
2024/01/20 08:14:17;;;;;;;14.52;7.65;;;;;;;;;;5072468;28;20048;-68
2024/01/20 08:16:43;;;;;;;13.18;6.15;;;;;;;;;;5072881;28;20042;-67
2024/01/20 08:19:08;;;;;;;10.35;5.65;;;;;;;;;;5072976;28;20020;-67
2024/01/20 08:21:34;;;;;;;16.65;7.53;;;;;;;;;;5072941;28;20028;-69
2024/01/20 08:23:59;;;;;;;14.60;7.05;;;;;;;;;;5072680;28;20074;-67
2024/01/20 08:26:25;;;;;;;10.30;4.82;;;;;;;;;;5072883;28;20437;-67
2024/01/20 08:28:51;;;;;;;13.82;5.90;;;;;;;;;;5072538;28;20032;-69
2024/01/20 08:31:16;;;;;;;11.73;6.60;;;;;;;;;;5072867;28;20024;-69
2024/01/20 08:33:42;;;;;;;15.27;7.68;;;;;;;;;;5072710;28;20371;-67
2024/01/20 08:36:07;;;;;;;8.73;5.82;;;;;;;;;;5072696;28;20024;-69
2024/01/20 08:38:33;;;;;;;14.32;7.13;;;;;;;;;;5072438;28;20472;-67
2024/01/20 08:40:58;;;;;;;12.40;6.97;;;;;;;;;;5072806;28;20178;-68
2024/01/20 08:43:23;;;;;;;11.95;5.43;;;;;;;;;;5072231;28;20036;-68
2024/01/20 08:45:50;;;;;;;6.75;4.03;;;;;;;;;;5072345;28;20037;-68
2024/01/20 08:48:16;;;;;;;10.60;6.30;;;;;;;;;;5072645;28;20029;-68
2024/01/20 08:50:41;;;;;;;18.02;6.88;;;;;;;;;;5072614;28;20082;-68
2024/01/20 08:53:06;;;;;;;8.52;4.80;;;;;;;;;;5072436;28;20086;-68
2024/01/20 08:55:32;;;;;;;9.02;5.00;;;;;;;;;;5072366;28;20033;-68
2024/01/20 08:57:57;;;;;;;14.70;7.22;;;;;;;;;;5074769;28;20066;-68
2024/01/20 09:00:23;;;;;;;12.63;6.85;;;;;;;;;;5078987;28;20020;-68
2024/01/20 09:02:49;;;;;;;11.95;6.45;;;;;;;;;;5079339;28;20020;-69
2024/01/20 09:05:17;;;;;;;15.10;7.40;;;;;;;;;;5060705;28;20471;-68
2024/01/20 09:07:43;;;;;;;15.85;8.32;;;;;;;;;;5079181;28;20017;-68
2024/01/20 09:10:09;;;;;;;12.82;7.07;;;;;;;;;;5079154;28;20111;-68
2024/01/20 09:12:34;;;;;;;8.93;6.00;;;;;;;;;;5078865;28;20029;-68
2024/01/20 09:14:59;;;;;;;16.95;8.25;;;;;;;;;;5078968;28;20069;-68
2024/01/20 09:17:25;;;;;;;11.30;7.15;;;;;;;;;;5079017;28;20036;-68
2024/01/20 09:19:50;;;;;;;16.45;7.18;;;;;;;;;;5060961;28;20037;-68
2024/01/20 09:22:18;;;;;;;18.33;5.45;;;;;;;;;;5078438;28;20450;-68
2024/01/20 09:24:43;;;;;;;17.05;7.30;;;;;;;;;;5078650;28;20372;-68
2024/01/20 09:27:08;;;;;;;6.78;4.57;;;;;;;;;;5078846;28;20039;-68
2024/01/20 09:29:34;;;;;;;9.48;6.10;;;;;;;;;;5079025;28;20394;-68
2024/01/20 09:31:59;;;;;;;13.15;6.07;;;;;;;;;;5078778;28;20024;-68
2024/01/20 09:34:25;;;;;;;15.00;8.18;;;;;;;;;;5078729;28;20024;-68
2024/01/20 09:36:50;;;;;;;16.48;6.30;;;;;;;;;;5078781;28;20105;-68
2024/01/20 09:39:16;;;;;;;8.52;4.95;;;;;;;;;;5078751;28;20471;-68
2024/01/20 09:41:42;;;;;;;14.07;6.95;;;;;;;;;;5078456;28;20028;-68
2024/01/20 09:44:08;;;;;;;9.32;4.90;;;;;;;;;;5078658;28;20462;-68
2024/01/20 09:46:34;;;;;;;14.52;6.97;;;;;;;;;;5078483;28;20078;-68
2024/01/20 09:49:00;;;;;;;14.80;6.75;;;;;;;;;;5078411;28;20029;-68
2024/01/20 09:51:28;;;;;;;16.17;6.10;;;;;;;;;;5078740;28;20496;-68
2024/01/20 09:53:59;;;;;;;11.80;6.25;;;;;;;;;;5078363;28;20037;-68
2024/01/20 09:56:28;;;;;;;10.02;5.82;;;;;;;;;;5078437;28;20017;-68
2024/01/20 09:58:59;;;;;;;13.18;7.10;;;;;;;;;;5078662;28;20029;-68
2024/01/20 10:01:26;;;;;;;19.90;6.10;;;;;;;;;;5078432;28;20479;-68
2024/01/20 10:03:52;;;;;;;16.98;7.10;;;;;;;;;;5078638;28;20032;-68
2024/01/20 10:06:17;;;;;;;8.75;5.03;;;;;;;;;;5078706;28;20024;-67
2024/01/20 10:08:43;;;;;;;7.18;4.82;;;;;;;;;;5077795;28;20025;-68
2024/01/20 10:11:08;;;;;;;15.40;6.50;;;;;;;;;;5074552;28;20031;-68
2024/01/20 10:13:33;;;;;;;11.18;6.32;;;;;;;;;;5075251;28;20025;-68
2024/01/20 10:15:59;;;;;;;11.00;5.28;;;;;;;;;;5075207;28;20025;-68
2024/01/20 10:18:24;;;;;;;12.20;5.15;;;;;;;;;;5075235;28;20028;-68
2024/01/20 10:21:00;;;;;;;12.38;5.72;;;;;;;;;;5075009;28;20042;-68
2024/01/20 10:23:26;;;;;;;7.80;5.20;;;;;;;;;;5074857;28;20024;-68
2024/01/20 10:26:05;;;;;;;10.73;5.28;;;;;;;;;;5074853;28;20091;-67
2024/01/20 10:28:31;;;;;;;12.68;6.22;;;;;;;;;;5075093;28;20032;-67
2024/01/20 10:30:56;;;;;;;14.05;6.85;;;;;;;;;;5075076;28;20017;-67
2024/01/20 10:33:22;;;;;;;15.60;5.63;;;;;;;;;;5074860;28;20025;-69
2024/01/20 10:35:50;;;;;;;16.38;7.05;;;;;;;;;;5074876;28;20464;-67
2024/01/20 10:38:21;;;;;;;11.95;6.10;;;;;;;;;;5074588;28;20474;-67
2024/01/20 10:40:53;;;;;;;9.05;4.25;;;;;;;;;;5074876;28;20027;-69
2024/01/20 10:43:19;;;;;;;18.48;7.05;;;;;;;;;;5074428;28;20028;-69
2024/01/20 10:46:19;;;;;;;12.70;5.40;;;;;;;;;;5074626;28;20032;-68
2024/01/20 10:48:47;;;;;;;;;;;;;;;;;;5071733;28;20043;-68
2024/01/20 10:51:19;;;;;;;9.77;5.78;;;;;;;;;;5074472;28;19956;-68
2024/01/20 10:53:46;;;;;;;29.60;8.55;;;;;;;;;;5074160;28;20566;-67
2024/01/20 10:56:13;;;;;;;15.35;6.88;;;;;;;;;;5074444;28;20399;-67
2024/01/20 10:58:44;;;;;;;15.02;7.35;;;;;;;;;;5074447;28;20028;-69
2024/01/20 11:01:11;;;;;;;11.73;4.95;;;;;;;;;;5074310;28;20028;-67
2024/01/20 11:03:37;;;;;;;8.32;4.50;;;;;;;;;;5074317;28;20464;-67
2024/01/20 11:06:03;;;;;;;14.32;5.55;;;;;;;;;;5074045;28;20426;-67
2024/01/20 11:08:29;;;;;;;12.48;5.82;;;;;;;;;;5073940;28;20050;-69
2024/01/20 11:10:54;;;;;;;17.20;7.35;;;;;;;;;;5074340;28;20416;-67
2024/01/20 11:13:26;;;;;;;19.50;8.43;;;;;;;;;;5074134;28;20119;-67
2024/01/20 11:15:52;;;;;;;19.60;8.20;;;;;;;;;;5073809;28;20033;-67
2024/01/20 11:18:19;;;;;;;16.92;8.25;;;;;;;;;;5074260;28;20059;-67
2024/01/20 11:21:01;;;;;;;12.68;5.47;;;;;;;;;;5073665;28;20529;-67
2024/01/20 11:23:26;;;;;;;16.80;6.95;;;;;;;;;;5073379;28;20025;-67
2024/01/20 11:25:53;;;;;;;15.18;6.65;;;;;;;;;;5073991;28;20344;-67
2024/01/20 11:28:45;;;;;;;11.07;4.40;;;;;;;;;;5073659;28;20096;-67
2024/01/20 11:31:20;;;;;;;15.73;7.53;;;;;;;;;;5071751;28;20048;-67
2024/01/20 11:33:46;;;;;;;10.30;6.00;;;;;;;;;;5073652;28;20047;-67
2024/01/20 11:36:11;;;;;;;12.88;5.85;;;;;;;;;;5073427;28;20028;-67
2024/01/20 11:38:37;;;;;;;12.63;5.00;;;;;;;;;;5073475;28;20035;-67
2024/01/20 11:41:03;;;;;;;15.60;6.10;;;;;;;;;;5073351;28;20021;-66
2024/01/20 11:43:29;;;;;;;16.33;8.20;;;;;;;;;;5073491;28;20025;-67
2024/01/20 11:45:56;;;;;;;8.85;4.53;;;;;;;;;;5073306;28;20498;-66
2024/01/20 11:48:22;;;;;;;14.63;6.90;;;;;;;;;;5073502;28;20517;-69
2024/01/20 11:50:49;;;;;;;11.98;6.22;;;;;;;;;;5073137;28;20095;-67
2024/01/20 11:53:14;;;;;;;14.13;5.38;;;;;;;;;;5073101;28;20045;-66
2024/01/20 11:55:40;;;;;;;15.18;6.18;;;;;;;;;;5073351;28;20027;-66
2024/01/20 11:58:05;;;;;;;15.70;6.15;;;;;;;;;;5073184;28;20032;-66
2024/01/20 12:00:30;;;;;;;12.40;4.80;;;;;;;;;;5073165;28;20025;-65
2024/01/20 12:02:56;;;;;;;16.88;6.85;;;;;;;;;;5072993;28;20024;-66
2024/01/20 12:05:22;;;;;;;20.48;7.80;;;;;;;;;;5072757;28;20475;-66
2024/01/20 12:07:47;;;;;;;14.63;6.28;;;;;;;;;;5073172;28;20380;-65
2024/01/20 12:10:16;;;;;;;17.15;6.63;;;;;;;;;;5073051;28;20451;-65
2024/01/20 12:12:42;;;;;;;8.32;5.10;;;;;;;;;;5072936;28;20123;-66
2024/01/20 12:15:09;;;;;;;13.68;6.25;;;;;;;;;;5072930;28;20025;-66
2024/01/20 12:17:35;;;;;;;17.52;6.22;;;;;;;;;;5072820;28;20024;-67
2024/01/20 12:20:01;;;;;;;16.73;6.78;;;;;;;;;;5072407;28;20039;-66
2024/01/20 12:22:26;;;;;;;19.27;6.30;;;;;;;;;;5072388;28;20103;-66
2024/01/20 12:24:51;;;;;;;14.85;6.40;;;;;;;;;;5072616;28;20024;-67
2024/01/20 12:27:18;;;;;;;13.23;6.97;;;;;;;;;;5072418;28;20365;-67
2024/01/20 12:29:44;;;;;;;11.23;5.68;;;;;;;;;;5072835;28;20029;-67
2024/01/20 12:32:09;;;;;;;14.05;6.95;;;;;;;;;;5072354;28;20525;-66
2024/01/20 12:34:35;;;;;;;19.67;5.18;;;;;;;;;;5054500;28;20670;-67
2024/01/20 12:37:00;;;;;;;16.75;7.30;;;;;;;;;;5072851;28;20310;-68
2024/01/20 12:39:26;;;;;;;13.48;6.43;;;;;;;;;;5072558;28;20031;-68
2024/01/20 12:41:53;;;;;;;20.17;7.05;;;;;;;;;;5055166;28;20063;-66
2024/01/20 12:44:20;;;;;;;13.68;5.45;;;;;;;;;;5071024;28;20043;-67
2024/01/20 12:46:46;;;;;;;11.82;6.40;;;;;;;;;;5072007;28;20112;-67
2024/01/20 12:49:12;;;;;;;14.00;6.65;;;;;;;;;;5072218;28;20509;-66
2024/01/20 12:51:39;;;;;;;7.88;4.45;;;;;;;;;;5053867;28;20036;-68
2024/01/20 12:54:04;;;;;;;16.13;6.47;;;;;;;;;;5071755;28;20068;-66
2024/01/20 12:56:30;;;;;;;15.57;7.63;;;;;;;;;;5072290;28;20071;-67
2024/01/20 12:58:56;;;;;;;8.38;4.93;;;;;;;;;;5072319;28;20601;-67
2024/01/20 13:01:24;;;;;;;12.52;6.47;;;;;;;;;;5072108;28;20024;-68
2024/01/20 13:03:54;;;;;;;14.10;5.00;;;;;;;;;;5071864;28;20028;-67
2024/01/20 13:06:20;;;;;;;8.75;5.35;;;;;;;;;;5072214;28;20024;-67
2024/01/20 13:08:46;;;;;;;12.10;5.70;;;;;;;;;;5072069;28;20029;-68
2024/01/20 13:11:11;;;;;;;22.13;8.60;;;;;;;;;;5072314;28;20104;-69
2024/01/20 13:13:37;;;;;;;10.25;5.40;;;;;;;;;;5072058;28;20468;-68
2024/01/20 13:16:04;;;;;;;8.07;4.55;;;;;;;;;;5072102;28;20052;-68
2024/01/20 13:18:30;;;;;;;14.00;6.55;;;;;;;;;;5053924;28;20123;-67
2024/01/20 13:20:56;;;;;;;12.80;5.68;;;;;;;;;;5071919;28;20028;-67
2024/01/20 13:23:22;;;;;;;14.32;6.22;;;;;;;;;;5071802;28;20017;-67
2024/01/20 13:25:47;;;;;;;14.35;5.35;;;;;;;;;;5071834;28;20033;-67
2024/01/20 13:28:15;;;;;;;13.68;6.78;;;;;;;;;;5071928;28;20028;-68
2024/01/20 13:30:40;;;;;;;14.15;6.30;;;;;;;;;;5071885;28;20032;-68
2024/01/20 13:33:06;;;;;;;15.70;6.45;;;;;;;;;;5053659;28;20131;-67
2024/01/20 13:35:31;;;;;;;15.63;7.53;;;;;;;;;;5071757;28;20038;-68
2024/01/20 13:37:56;;;;;;;15.77;6.53;;;;;;;;;;5071830;28;20430;-68
2024/01/20 13:40:22;;;;;;;21.48;7.97;;;;;;;;;;5053745;28;20029;-67
2024/01/20 13:42:48;;;;;;;14.20;6.18;;;;;;;;;;5071802;28;20024;-66
2024/01/20 13:45:13;;;;;;;10.68;5.25;;;;;;;;;;5072917;28;20021;-68
2024/01/20 13:47:38;;;;;;;19.50;7.22;;;;;;;;;;5075086;28;20514;-67
2024/01/20 13:50:05;;;;;;;14.23;6.03;;;;;;;;;;5075437;28;20150;-67
2024/01/20 13:52:30;;;;;;;20.00;8.20;;;;;;;;;;5075213;28;20035;-68
2024/01/20 13:54:56;;;;;;;14.50;6.22;;;;;;;;;;5075433;28;20032;-68
2024/01/20 13:57:21;;;;;;;15.27;6.00;;;;;;;;;;5057392;28;20119;-67
2024/01/20 13:59:46;;;;;;;20.17;8.10;;;;;;;;;;5075288;28;20023;-67
2024/01/20 14:02:12;;;;;;;16.15;6.57;;;;;;;;;;5074703;28;20439;-66
2024/01/20 14:04:37;;;;;;;16.95;6.45;;;;;;;;;;5075036;28;20082;-67
2024/01/20 14:07:03;;;;;;;15.18;6.65;;;;;;;;;;5074981;28;20017;-67
2024/01/20 14:09:30;;;;;;;14.80;6.32;;;;;;;;;;5075101;28;20020;-67
2024/01/20 14:11:55;;;;;;;16.15;8.35;;;;;;;;;;5075036;28;20029;-67
2024/01/20 14:14:20;;;;;;;11.57;6.25;;;;;;;;;;5074984;28;20035;-66
2024/01/20 14:16:54;;;;;;;15.73;7.85;;;;;;;;;;5074911;28;20031;-67
2024/01/20 14:19:19;;;;;;;13.23;6.10;;;;;;;;;;5074986;28;20055;-67
2024/01/20 14:21:45;;;;;;;12.23;6.75;;;;;;;;;;5074576;28;20025;-66